sensor_id;sensor_type;location;lat;lon;timestamp;temperature;humidity
54576;DHT22;40472;53.486;14.542;2023-07-08T00:00:43;16.20;99.90
54576;DHT22;40472;53.486;14.542;2023-07-08T00:03:09;16.10;99.90
54576;DHT22;40472;53.486;14.542;2023-07-08T00:05:35;16.00;99.90
54576;DHT22;40472;53.486;14.542;2023-07-08T00:08:01;15.90;99.90
54576;DHT22;40472;53.486;14.542;2023-07-08T00:10:31;15.90;99.90
54576;DHT22;40472;53.486;14.542;2023-07-08T00:12:57;15.70;99.90
54576;DHT22;40472;53.486;14.542;2023-07-08T00:15:28;15.60;99.90
54576;DHT22;40472;53.486;14.542;2023-07-08T00:17:55;15.60;99.90
54576;DHT22;40472;53.486;14.542;2023-07-08T00:20:35;15.50;99.90
54576;DHT22;40472;53.486;14.542;2023-07-08T00:23:02;15.40;99.90
54576;DHT22;40472;53.486;14.542;2023-07-08T00:25:29;15.40;99.90
54576;DHT22;40472;53.486;14.542;2023-07-08T00:27:55;15.30;99.90
54576;DHT22;40472;53.486;14.542;2023-07-08T00:32:47;15.20;99.90
54576;DHT22;40472;53.486;14.542;2023-07-08T00:35:13;15.10;99.90
54576;DHT22;40472;53.486;14.542;2023-07-08T00:37:38;15.10;99.90
54576;DHT22;40472;53.486;14.542;2023-07-08T00:40:18;15.10;99.90
54576;DHT22;40472;53.486;14.542;2023-07-08T00:42:44;15.10;99.90
54576;DHT22;40472;53.486;14.542;2023-07-08T00:45:31;15.10;99.90
54576;DHT22;40472;53.486;14.542;2023-07-08T00:48:05;15.10;99.90
54576;DHT22;40472;53.486;14.542;2023-07-08T00:50:31;15.10;99.90
54576;DHT22;40472;53.486;14.542;2023-07-08T00:53:36;15.10;99.90
54576;DHT22;40472;53.486;14.542;2023-07-08T00:56:22;15.10;99.90
54576;DHT22;40472;53.486;14.542;2023-07-08T00:59:02;15.10;99.90
54576;DHT22;40472;53.486;14.542;2023-07-08T01:01:29;15.20;99.90
54576;DHT22;40472;53.486;14.542;2023-07-08T01:04:03;15.20;99.90
54576;DHT22;40472;53.486;14.542;2023-07-08T01:06:32;15.20;99.90
54576;DHT22;40472;53.486;14.542;2023-07-08T01:09:03;15.20;99.90
54576;DHT22;40472;53.486;14.542;2023-07-08T01:11:30;15.30;99.90
54576;DHT22;40472;53.486;14.542;2023-07-08T01:14:01;15.30;99.90
54576;DHT22;40472;53.486;14.542;2023-07-08T01:16:28;15.30;99.90
54576;DHT22;40472;53.486;14.542;2023-07-08T01:18:54;15.30;99.90
54576;DHT22;40472;53.486;14.542;2023-07-08T01:24:07;15.30;99.90
54576;DHT22;40472;53.486;14.542;2023-07-08T01:26:37;15.40;99.90
54576;DHT22;40472;53.486;14.542;2023-07-08T01:29:04;15.40;99.90
54576;DHT22;40472;53.486;14.542;2023-07-08T01:31:30;15.50;99.90
54576;DHT22;40472;53.486;14.542;2023-07-08T01:33:56;15.40;99.90
54576;DHT22;40472;53.486;14.542;2023-07-08T01:36:21;15.40;99.90
54576;DHT22;40472;53.486;14.542;2023-07-08T01:38:47;15.50;99.90
54576;DHT22;40472;53.486;14.542;2023-07-08T01:41:15;15.40;99.90
54576;DHT22;40472;53.486;14.542;2023-07-08T01:43:42;15.40;99.90
54576;DHT22;40472;53.486;14.542;2023-07-08T01:46:19;15.50;99.90
54576;DHT22;40472;53.486;14.542;2023-07-08T01:48:50;15.50;99.90
54576;DHT22;40472;53.486;14.542;2023-07-08T01:51:17;15.50;99.90
54576;DHT22;40472;53.486;14.542;2023-07-08T01:53:43;15.50;99.90
54576;DHT22;40472;53.486;14.542;2023-07-08T01:56:10;15.40;99.90
54576;DHT22;40472;53.486;14.542;2023-07-08T01:58:36;15.50;99.90
54576;DHT22;40472;53.486;14.542;2023-07-08T02:01:03;15.50;99.90
54576;DHT22;40472;53.486;14.542;2023-07-08T02:03:29;15.60;99.90
54576;DHT22;40472;53.486;14.542;2023-07-08T02:05:55;15.60;99.90
54576;DHT22;40472;53.486;14.542;2023-07-08T02:08:23;15.60;99.90
54576;DHT22;40472;53.486;14.542;2023-07-08T02:10:54;15.60;99.90
54576;DHT22;40472;53.486;14.542;2023-07-08T02:13:20;15.60;99.90
54576;DHT22;40472;53.486;14.542;2023-07-08T02:15:46;15.50;99.90
54576;DHT22;40472;53.486;14.542;2023-07-08T02:18:13;15.60;99.90
54576;DHT22;40472;53.486;14.542;2023-07-08T02:20:39;15.50;99.90
54576;DHT22;40472;53.486;14.542;2023-07-08T02:23:04;15.50;99.90
54576;DHT22;40472;53.486;14.542;2023-07-08T02:25:30;15.50;99.90
54576;DHT22;40472;53.486;14.542;2023-07-08T02:27:56;15.40;99.90
54576;DHT22;40472;53.486;14.542;2023-07-08T02:30:23;15.40;99.90
54576;DHT22;40472;53.486;14.542;2023-07-08T02:32:49;15.40;99.90
54576;DHT22;40472;53.486;14.542;2023-07-08T02:35:26;15.50;99.90
54576;DHT22;40472;53.486;14.542;2023-07-08T02:37:53;15.50;99.90
54576;DHT22;40472;53.486;14.542;2023-07-08T02:40:19;15.60;99.90
54576;DHT22;40472;53.486;14.542;2023-07-08T02:42:45;15.70;99.90
54576;DHT22;40472;53.486;14.542;2023-07-08T02:45:12;15.70;99.90
54576;DHT22;40472;53.486;14.542;2023-07-08T02:47:38;15.70;99.90
54576;DHT22;40472;53.486;14.542;2023-07-08T02:50:04;15.80;99.90
54576;DHT22;40472;53.486;14.542;2023-07-08T02:52:30;15.80;99.90
54576;DHT22;40472;53.486;14.542;2023-07-08T02:54:56;15.90;99.90
54576;DHT22;40472;53.486;14.542;2023-07-08T02:57:21;16.00;99.90
54576;DHT22;40472;53.486;14.542;2023-07-08T02:59:47;16.00;99.90
54576;DHT22;40472;53.486;14.542;2023-07-08T03:02:13;16.00;99.90
54576;DHT22;40472;53.486;14.542;2023-07-08T03:04:39;16.00;99.90
54576;DHT22;40472;53.486;14.542;2023-07-08T03:07:06;15.90;99.90
54576;DHT22;40472;53.486;14.542;2023-07-08T03:09:40;16.00;99.90
54576;DHT22;40472;53.486;14.542;2023-07-08T03:12:07;15.90;99.90
54576;DHT22;40472;53.486;14.542;2023-07-08T03:14:33;15.90;99.90
54576;DHT22;40472;53.486;14.542;2023-07-08T03:16:58;16.00;99.90
54576;DHT22;40472;53.486;14.542;2023-07-08T03:19:24;15.90;99.90
54576;DHT22;40472;53.486;14.542;2023-07-08T03:21:51;16.00;99.90
54576;DHT22;40472;53.486;14.542;2023-07-08T03:24:17;15.90;99.90
54576;DHT22;40472;53.486;14.542;2023-07-08T03:26:44;15.90;99.90
54576;DHT22;40472;53.486;14.542;2023-07-08T03:29:18;15.90;99.90
54576;DHT22;40472;53.486;14.542;2023-07-08T03:31:44;16.00;99.90
54576;DHT22;40472;53.486;14.542;2023-07-08T03:34:14;15.90;99.90
54576;DHT22;40472;53.486;14.542;2023-07-08T03:36:44;16.00;99.90
54576;DHT22;40472;53.486;14.542;2023-07-08T03:39:15;16.00;99.90
54576;DHT22;40472;53.486;14.542;2023-07-08T03:41:41;16.00;99.90
54576;DHT22;40472;53.486;14.542;2023-07-08T03:44:06;16.00;99.90
54576;DHT22;40472;53.486;14.542;2023-07-08T03:46:32;16.10;99.90
54576;DHT22;40472;53.486;14.542;2023-07-08T03:48:58;16.10;99.90
54576;DHT22;40472;53.486;14.542;2023-07-08T03:51:31;16.10;99.90
54576;DHT22;40472;53.486;14.542;2023-07-08T03:53:58;16.20;99.90
54576;DHT22;40472;53.486;14.542;2023-07-08T03:56:24;16.20;99.90
54576;DHT22;40472;53.486;14.542;2023-07-08T03:58:50;16.30;99.90
54576;DHT22;40472;53.486;14.542;2023-07-08T04:01:21;16.40;99.90
54576;DHT22;40472;53.486;14.542;2023-07-08T04:03:51;16.40;99.90
54576;DHT22;40472;53.486;14.542;2023-07-08T04:06:17;16.40;99.90
54576;DHT22;40472;53.486;14.542;2023-07-08T04:08:43;16.50;99.90
54576;DHT22;40472;53.486;14.542;2023-07-08T04:11:11;16.50;99.90
54576;DHT22;40472;53.486;14.542;2023-07-08T04:13:37;16.50;99.90
54576;DHT22;40472;53.486;14.542;2023-07-08T04:16:04;16.50;99.90
54576;DHT22;40472;53.486;14.542;2023-07-08T04:18:31;16.60;99.90
54576;DHT22;40472;53.486;14.542;2023-07-08T04:20:57;16.60;99.90
54576;DHT22;40472;53.486;14.542;2023-07-08T04:23:23;16.50;99.90
54576;DHT22;40472;53.486;14.542;2023-07-08T04:25:50;16.50;99.90
54576;DHT22;40472;53.486;14.542;2023-07-08T04:28:17;16.50;99.90
54576;DHT22;40472;53.486;14.542;2023-07-08T04:30:43;16.70;99.90
54576;DHT22;40472;53.486;14.542;2023-07-08T04:33:11;16.80;99.90
54576;DHT22;40472;53.486;14.542;2023-07-08T04:35:38;16.90;99.90
54576;DHT22;40472;53.486;14.542;2023-07-08T04:38:18;17.00;99.90
54576;DHT22;40472;53.486;14.542;2023-07-08T04:40:45;17.10;99.90
54576;DHT22;40472;53.486;14.542;2023-07-08T04:43:11;17.20;99.90
54576;DHT22;40472;53.486;14.542;2023-07-08T04:45:38;17.30;99.90
54576;DHT22;40472;53.486;14.542;2023-07-08T04:48:05;17.40;99.90
54576;DHT22;40472;53.486;14.542;2023-07-08T04:50:34;17.50;99.90
54576;DHT22;40472;53.486;14.542;2023-07-08T04:53:00;17.70;99.90
54576;DHT22;40472;53.486;14.542;2023-07-08T04:55:27;17.80;99.90
54576;DHT22;40472;53.486;14.542;2023-07-08T04:57:53;17.80;99.90
54576;DHT22;40472;53.486;14.542;2023-07-08T05:00:19;17.90;99.90
54576;DHT22;40472;53.486;14.542;2023-07-08T05:02:45;17.90;99.90
54576;DHT22;40472;53.486;14.542;2023-07-08T05:05:11;18.00;99.90
54576;DHT22;40472;53.486;14.542;2023-07-08T05:07:36;18.10;99.90
54576;DHT22;40472;53.486;14.542;2023-07-08T05:10:02;18.20;99.90
54576;DHT22;40472;53.486;14.542;2023-07-08T05:12:28;18.20;99.90
54576;DHT22;40472;53.486;14.542;2023-07-08T05:14:54;18.20;99.90
54576;DHT22;40472;53.486;14.542;2023-07-08T05:17:19;18.20;99.90
54576;DHT22;40472;53.486;14.542;2023-07-08T05:19:45;18.30;99.90
54576;DHT22;40472;53.486;14.542;2023-07-08T05:22:12;18.30;99.90
54576;DHT22;40472;53.486;14.542;2023-07-08T05:24:38;18.40;99.90
54576;DHT22;40472;53.486;14.542;2023-07-08T05:27:04;18.50;99.90
54576;DHT22;40472;53.486;14.542;2023-07-08T05:29:29;18.50;99.90
54576;DHT22;40472;53.486;14.542;2023-07-08T05:31:55;18.60;99.90
54576;DHT22;40472;53.486;14.542;2023-07-08T05:34:21;18.70;99.90
54576;DHT22;40472;53.486;14.542;2023-07-08T05:36:47;18.70;99.90
54576;DHT22;40472;53.486;14.542;2023-07-08T05:39:13;18.80;99.90
54576;DHT22;40472;53.486;14.542;2023-07-08T05:41:38;18.80;99.90
54576;DHT22;40472;53.486;14.542;2023-07-08T05:44:04;18.90;99.90
54576;DHT22;40472;53.486;14.542;2023-07-08T05:46:30;18.90;99.90
54576;DHT22;40472;53.486;14.542;2023-07-08T05:48:55;19.00;99.90
54576;DHT22;40472;53.486;14.542;2023-07-08T05:51:21;19.00;99.90
54576;DHT22;40472;53.486;14.542;2023-07-08T05:53:47;19.00;99.90
54576;DHT22;40472;53.486;14.542;2023-07-08T05:56:12;19.00;99.90
54576;DHT22;40472;53.486;14.542;2023-07-08T05:58:38;19.00;99.90
54576;DHT22;40472;53.486;14.542;2023-07-08T06:01:04;19.10;99.90
54576;DHT22;40472;53.486;14.542;2023-07-08T06:03:30;19.20;99.90
54576;DHT22;40472;53.486;14.542;2023-07-08T06:05:55;19.20;99.90
54576;DHT22;40472;53.486;14.542;2023-07-08T06:08:22;19.20;99.90
54576;DHT22;40472;53.486;14.542;2023-07-08T06:10:49;19.30;99.50
54576;DHT22;40472;53.486;14.542;2023-07-08T06:13:15;19.30;99.00
54576;DHT22;40472;53.486;14.542;2023-07-08T06:15:42;19.40;99.60
54576;DHT22;40472;53.486;14.542;2023-07-08T06:18:07;19.40;98.80
54576;DHT22;40472;53.486;14.542;2023-07-08T06:20:33;19.50;98.70
54576;DHT22;40472;53.486;14.542;2023-07-08T06:22:59;19.50;98.30
54576;DHT22;40472;53.486;14.542;2023-07-08T06:25:25;19.50;97.50
54576;DHT22;40472;53.486;14.542;2023-07-08T06:27:50;19.50;98.90
54576;DHT22;40472;53.486;14.542;2023-07-08T06:30:16;19.60;97.70
54576;DHT22;40472;53.486;14.542;2023-07-08T06:32:42;19.70;97.30
54576;DHT22;40472;53.486;14.542;2023-07-08T06:35:08;19.70;97.80
54576;DHT22;40472;53.486;14.542;2023-07-08T06:37:34;19.60;99.20
54576;DHT22;40472;53.486;14.542;2023-07-08T06:40:00;19.70;97.70
54576;DHT22;40472;53.486;14.542;2023-07-08T06:42:26;19.80;97.50
54576;DHT22;40472;53.486;14.542;2023-07-08T06:44:51;19.80;97.30
54576;DHT22;40472;53.486;14.542;2023-07-08T06:47:21;19.90;98.20
54576;DHT22;40472;53.486;14.542;2023-07-08T06:49:47;20.00;98.00
54576;DHT22;40472;53.486;14.542;2023-07-08T06:52:14;20.10;98.70
54576;DHT22;40472;53.486;14.542;2023-07-08T06:54:40;20.10;98.00
54576;DHT22;40472;53.486;14.542;2023-07-08T06:57:06;20.10;97.00
54576;DHT22;40472;53.486;14.542;2023-07-08T06:59:33;20.10;98.10
54576;DHT22;40472;53.486;14.542;2023-07-08T07:01:58;20.10;98.10
54576;DHT22;40472;53.486;14.542;2023-07-08T07:04:24;20.20;97.60
54576;DHT22;40472;53.486;14.542;2023-07-08T07:06:50;20.20;99.20
54576;DHT22;40472;53.486;14.542;2023-07-08T07:09:16;20.20;98.70
54576;DHT22;40472;53.486;14.542;2023-07-08T07:11:42;20.20;99.00
54576;DHT22;40472;53.486;14.542;2023-07-08T07:14:08;20.30;98.10
54576;DHT22;40472;53.486;14.542;2023-07-08T07:16:34;20.30;97.50
54576;DHT22;40472;53.486;14.542;2023-07-08T07:18:59;20.20;97.70
54576;DHT22;40472;53.486;14.542;2023-07-08T07:21:25;20.30;98.30
54576;DHT22;40472;53.486;14.542;2023-07-08T07:23:51;20.40;98.10
54576;DHT22;40472;53.486;14.542;2023-07-08T07:26:16;20.40;97.50
54576;DHT22;40472;53.486;14.542;2023-07-08T07:28:42;20.40;97.00
54576;DHT22;40472;53.486;14.542;2023-07-08T07:31:08;20.50;97.50
54576;DHT22;40472;53.486;14.542;2023-07-08T07:33:36;20.50;98.20
54576;DHT22;40472;53.486;14.542;2023-07-08T07:36:02;20.60;98.30
54576;DHT22;40472;53.486;14.542;2023-07-08T07:38:27;20.70;97.30
54576;DHT22;40472;53.486;14.542;2023-07-08T07:40:55;20.70;98.10
54576;DHT22;40472;53.486;14.542;2023-07-08T07:43:21;20.80;96.80
54576;DHT22;40472;53.486;14.542;2023-07-08T07:45:51;20.90;96.80
54576;DHT22;40472;53.486;14.542;2023-07-08T07:48:18;21.00;98.30
54576;DHT22;40472;53.486;14.542;2023-07-08T07:50:47;21.00;95.60
54576;DHT22;40472;53.486;14.542;2023-07-08T07:53:14;21.00;96.60
54576;DHT22;40472;53.486;14.542;2023-07-08T07:55:40;21.00;95.80
54576;DHT22;40472;53.486;14.542;2023-07-08T07:58:05;21.00;95.60
54576;DHT22;40472;53.486;14.542;2023-07-08T08:00:31;21.20;95.80
54576;DHT22;40472;53.486;14.542;2023-07-08T08:02:57;21.30;96.10
54576;DHT22;40472;53.486;14.542;2023-07-08T08:05:23;21.30;94.80
54576;DHT22;40472;53.486;14.542;2023-07-08T08:07:49;21.30;94.70
54576;DHT22;40472;53.486;14.542;2023-07-08T08:10:15;21.40;96.90
54576;DHT22;40472;53.486;14.542;2023-07-08T08:12:41;21.40;94.50
54576;DHT22;40472;53.486;14.542;2023-07-08T08:15:07;21.50;94.20
54576;DHT22;40472;53.486;14.542;2023-07-08T08:17:33;21.50;93.10
54576;DHT22;40472;53.486;14.542;2023-07-08T08:19:58;21.60;94.80
54576;DHT22;40472;53.486;14.542;2023-07-08T08:22:24;21.70;94.00
54576;DHT22;40472;53.486;14.542;2023-07-08T08:24:50;21.70;91.90
54576;DHT22;40472;53.486;14.542;2023-07-08T08:27:15;21.60;93.00
54576;DHT22;40472;53.486;14.542;2023-07-08T08:29:41;21.60;93.90
54576;DHT22;40472;53.486;14.542;2023-07-08T08:32:07;21.70;91.90
54576;DHT22;40472;53.486;14.542;2023-07-08T08:34:33;21.80;91.90
54576;DHT22;40472;53.486;14.542;2023-07-08T08:36:58;21.80;92.90
54576;DHT22;40472;53.486;14.542;2023-07-08T08:39:24;21.90;94.50
54576;DHT22;40472;53.486;14.542;2023-07-08T08:41:55;21.90;94.20
54576;DHT22;40472;53.486;14.542;2023-07-08T08:44:32;22.00;92.70
54576;DHT22;40472;53.486;14.542;2023-07-08T08:47:38;22.10;93.00
54576;DHT22;40472;53.486;14.542;2023-07-08T08:52:55;22.20;92.30
54576;DHT22;40472;53.486;14.542;2023-07-08T08:55:23;22.10;92.20
54576;DHT22;40472;53.486;14.542;2023-07-08T08:58:23;22.20;95.20
54576;DHT22;40472;53.486;14.542;2023-07-08T09:03:42;22.40;91.80
54576;DHT22;40472;53.486;14.542;2023-07-08T09:06:15;22.50;92.20
54576;DHT22;40472;53.486;14.542;2023-07-08T09:08:42;22.50;91.50
54576;DHT22;40472;53.486;14.542;2023-07-08T09:13:49;22.50;92.40
54576;DHT22;40472;53.486;14.542;2023-07-08T09:16:39;22.60;94.10
54576;DHT22;40472;53.486;14.542;2023-07-08T09:19:37;22.70;91.70
54576;DHT22;40472;53.486;14.542;2023-07-08T09:22:05;22.80;91.20
54576;DHT22;40472;53.486;14.542;2023-07-08T09:27:19;22.80;90.30
54576;DHT22;40472;53.486;14.542;2023-07-08T09:29:46;22.80;89.70
54576;DHT22;40472;53.486;14.542;2023-07-08T09:34:47;22.80;90.30
54576;DHT22;40472;53.486;14.542;2023-07-08T09:37:23;22.80;91.60
54576;DHT22;40472;53.486;14.542;2023-07-08T09:39:49;23.00;90.30
54576;DHT22;40472;53.486;14.542;2023-07-08T09:42:16;23.00;88.10
54576;DHT22;40472;53.486;14.542;2023-07-08T09:44:45;23.00;90.90
54576;DHT22;40472;53.486;14.542;2023-07-08T09:47:28;23.00;88.60
54576;DHT22;40472;53.486;14.542;2023-07-08T09:49:57;23.20;89.30
54576;DHT22;40472;53.486;14.542;2023-07-08T09:52:26;23.30;89.10
54576;DHT22;40472;53.486;14.542;2023-07-08T09:54:51;23.30;86.30
54576;DHT22;40472;53.486;14.542;2023-07-08T09:57:29;23.30;88.10
54576;DHT22;40472;53.486;14.542;2023-07-08T10:00:05;23.50;90.80
54576;DHT22;40472;53.486;14.542;2023-07-08T10:02:58;23.40;89.90
54576;DHT22;40472;53.486;14.542;2023-07-08T10:05:36;23.50;85.50
54576;DHT22;40472;53.486;14.542;2023-07-08T10:08:16;23.50;90.10
54576;DHT22;40472;53.486;14.542;2023-07-08T10:10:43;23.50;84.70
54576;DHT22;40472;53.486;14.542;2023-07-08T10:13:24;23.60;90.00
54576;DHT22;40472;53.486;14.542;2023-07-08T10:16:09;23.70;87.30
54576;DHT22;40472;53.486;14.542;2023-07-08T10:18:37;23.90;86.80
54576;DHT22;40472;53.486;14.542;2023-07-08T10:26:27;23.90;85.90
54576;DHT22;40472;53.486;14.542;2023-07-08T10:29:06;23.90;87.50
54576;DHT22;40472;53.486;14.542;2023-07-08T10:32:00;24.00;84.40
54576;DHT22;40472;53.486;14.542;2023-07-08T10:45:49;24.00;85.30
54576;DHT22;40472;53.486;14.542;2023-07-08T10:53:37;24.40;82.00
54576;DHT22;40472;53.486;14.542;2023-07-08T10:56:21;24.50;80.40
54576;DHT22;40472;53.486;14.542;2023-07-08T10:59:09;24.60;79.10
54576;DHT22;40472;53.486;14.542;2023-07-08T11:07:11;24.80;76.70
54576;DHT22;40472;53.486;14.542;2023-07-08T11:10:00;24.70;78.30
54576;DHT22;40472;53.486;14.542;2023-07-08T11:12:52;24.80;76.60
54576;DHT22;40472;53.486;14.542;2023-07-08T11:18:23;24.80;76.00
54576;DHT22;40472;53.486;14.542;2023-07-08T11:21:13;25.00;78.50
54576;DHT22;40472;53.486;14.542;2023-07-08T11:24:06;25.20;77.00
54576;DHT22;40472;53.486;14.542;2023-07-08T11:26:41;25.30;77.80
54576;DHT22;40472;53.486;14.542;2023-07-08T11:29:47;25.40;76.40
54576;DHT22;40472;53.486;14.542;2023-07-08T11:32:21;25.40;77.40
54576;DHT22;40472;53.486;14.542;2023-07-08T11:34:50;25.20;77.30
54576;DHT22;40472;53.486;14.542;2023-07-08T11:37:17;25.20;83.50
54576;DHT22;40472;53.486;14.542;2023-07-08T11:40:18;25.20;78.30
54576;DHT22;40472;53.486;14.542;2023-07-08T11:42:48;25.30;79.40
54576;DHT22;40472;53.486;14.542;2023-07-08T11:47:48;25.40;82.60
54576;DHT22;40472;53.486;14.542;2023-07-08T11:50:39;25.50;85.10
54576;DHT22;40472;53.486;14.542;2023-07-08T11:53:13;25.60;80.60
54576;DHT22;40472;53.486;14.542;2023-07-08T11:58:25;25.30;80.60
54576;DHT22;40472;53.486;14.542;2023-07-08T12:03:36;25.10;82.20
54576;DHT22;40472;53.486;14.542;2023-07-08T12:06:03;25.30;82.00
54576;DHT22;40472;53.486;14.542;2023-07-08T12:08:48;25.50;78.20
54576;DHT22;40472;53.486;14.542;2023-07-08T12:11:14;25.60;80.90
54576;DHT22;40472;53.486;14.542;2023-07-08T12:13:40;25.60;79.00
54576;DHT22;40472;53.486;14.542;2023-07-08T12:16:11;25.40;78.50
54576;DHT22;40472;53.486;14.542;2023-07-08T12:18:39;25.50;78.00
54576;DHT22;40472;53.486;14.542;2023-07-08T12:21:12;25.60;77.30
54576;DHT22;40472;53.486;14.542;2023-07-08T12:23:46;25.50;78.70
54576;DHT22;40472;53.486;14.542;2023-07-08T12:26:13;25.60;80.00
54576;DHT22;40472;53.486;14.542;2023-07-08T12:28:40;25.60;76.90
54576;DHT22;40472;53.486;14.542;2023-07-08T12:31:21;25.60;76.60
54576;DHT22;40472;53.486;14.542;2023-07-08T12:33:47;25.60;77.20
54576;DHT22;40472;53.486;14.542;2023-07-08T12:36:18;25.70;77.10
54576;DHT22;40472;53.486;14.542;2023-07-08T12:38:45;25.80;76.00
54576;DHT22;40472;53.486;14.542;2023-07-08T12:41:17;25.70;74.60
54576;DHT22;40472;53.486;14.542;2023-07-08T12:43:45;25.80;75.20
54576;DHT22;40472;53.486;14.542;2023-07-08T12:46:11;25.90;76.10
54576;DHT22;40472;53.486;14.542;2023-07-08T12:48:39;25.90;74.30
54576;DHT22;40472;53.486;14.542;2023-07-08T12:51:09;25.90;75.40
54576;DHT22;40472;53.486;14.542;2023-07-08T12:53:36;25.70;73.40
54576;DHT22;40472;53.486;14.542;2023-07-08T12:56:02;25.60;75.80
54576;DHT22;40472;53.486;14.542;2023-07-08T12:58:30;25.70;76.50
54576;DHT22;40472;53.486;14.542;2023-07-08T13:00:58;25.90;76.20
54576;DHT22;40472;53.486;14.542;2023-07-08T13:03:28;25.80;74.40
54576;DHT22;40472;53.486;14.542;2023-07-08T13:05:56;25.70;73.70
54576;DHT22;40472;53.486;14.542;2023-07-08T13:08:24;25.60;72.60
54576;DHT22;40472;53.486;14.542;2023-07-08T13:10:54;25.70;73.70
54576;DHT22;40472;53.486;14.542;2023-07-08T13:13:24;25.70;74.10
54576;DHT22;40472;53.486;14.542;2023-07-08T13:15:51;25.80;72.40
54576;DHT22;40472;53.486;14.542;2023-07-08T13:18:36;25.80;73.30
54576;DHT22;40472;53.486;14.542;2023-07-08T13:21:05;25.90;71.60
54576;DHT22;40472;53.486;14.542;2023-07-08T13:23:32;25.60;71.40
54576;DHT22;40472;53.486;14.542;2023-07-08T13:25:59;25.60;72.40
54576;DHT22;40472;53.486;14.542;2023-07-08T13:28:30;25.50;72.00
54576;DHT22;40472;53.486;14.542;2023-07-08T13:31:11;25.60;73.30
54576;DHT22;40472;53.486;14.542;2023-07-08T13:33:38;25.70;73.20
54576;DHT22;40472;53.486;14.542;2023-07-08T13:36:05;25.70;71.90
54576;DHT22;40472;53.486;14.542;2023-07-08T13:38:37;25.70;72.30
54576;DHT22;40472;53.486;14.542;2023-07-08T13:41:05;25.60;71.70
54576;DHT22;40472;53.486;14.542;2023-07-08T13:43:35;25.60;71.10
54576;DHT22;40472;53.486;14.542;2023-07-08T13:46:01;25.50;70.80
54576;DHT22;40472;53.486;14.542;2023-07-08T13:51:17;25.50;72.00
54576;DHT22;40472;53.486;14.542;2023-07-08T13:54:22;25.50;69.20
54576;DHT22;40472;53.486;14.542;2023-07-08T13:56:51;25.50;71.40
54576;DHT22;40472;53.486;14.542;2023-07-08T13:59:22;25.50;68.80
54576;DHT22;40472;53.486;14.542;2023-07-08T14:01:51;25.50;70.60
54576;DHT22;40472;53.486;14.542;2023-07-08T14:04:21;25.40;69.20
54576;DHT22;40472;53.486;14.542;2023-07-08T14:06:49;25.40;71.40
54576;DHT22;40472;53.486;14.542;2023-07-08T14:09:15;25.40;70.70
54576;DHT22;40472;53.486;14.542;2023-07-08T14:11:43;25.40;71.90
54576;DHT22;40472;53.486;14.542;2023-07-08T14:14:09;25.40;72.10
54576;DHT22;40472;53.486;14.542;2023-07-08T14:16:41;25.50;73.20
54576;DHT22;40472;53.486;14.542;2023-07-08T14:19:21;25.60;71.30
54576;DHT22;40472;53.486;14.542;2023-07-08T14:21:57;25.60;69.60
54576;DHT22;40472;53.486;14.542;2023-07-08T14:24:23;25.50;68.80
54576;DHT22;40472;53.486;14.542;2023-07-08T14:26:50;25.50;70.20
54576;DHT22;40472;53.486;14.542;2023-07-08T14:32:38;25.20;69.70
54576;DHT22;40472;53.486;14.542;2023-07-08T14:35:22;25.10;69.40
54576;DHT22;40472;53.486;14.542;2023-07-08T14:37:48;25.10;68.70
54576;DHT22;40472;53.486;14.542;2023-07-08T14:40:31;25.10;69.90
54576;DHT22;40472;53.486;14.542;2023-07-08T14:43:03;25.20;69.40
54576;DHT22;40472;53.486;14.542;2023-07-08T14:45:36;25.30;68.80
54576;DHT22;40472;53.486;14.542;2023-07-08T14:48:10;25.30;68.10
54576;DHT22;40472;53.486;14.542;2023-07-08T14:50:37;25.30;68.70
54576;DHT22;40472;53.486;14.542;2023-07-08T14:53:02;25.10;67.50
54576;DHT22;40472;53.486;14.542;2023-07-08T14:55:29;25.00;68.80
54576;DHT22;40472;53.486;14.542;2023-07-08T14:57:54;24.90;68.40
54576;DHT22;40472;53.486;14.542;2023-07-08T15:00:22;24.90;68.90
54576;DHT22;40472;53.486;14.542;2023-07-08T15:02:49;24.90;69.10
54576;DHT22;40472;53.486;14.542;2023-07-08T15:05:26;24.90;67.80
54576;DHT22;40472;53.486;14.542;2023-07-08T15:07:57;25.00;66.60
54576;DHT22;40472;53.486;14.542;2023-07-08T15:10:26;25.00;66.60
54576;DHT22;40472;53.486;14.542;2023-07-08T15:12:53;25.00;66.10
54576;DHT22;40472;53.486;14.542;2023-07-08T15:15:29;24.80;66.90
54576;DHT22;40472;53.486;14.542;2023-07-08T15:17:56;24.70;65.80
54576;DHT22;40472;53.486;14.542;2023-07-08T15:20:23;24.70;66.20
54576;DHT22;40472;53.486;14.542;2023-07-08T15:22:49;24.70;66.10
54576;DHT22;40472;53.486;14.542;2023-07-08T15:25:16;24.80;65.90
54576;DHT22;40472;53.486;14.542;2023-07-08T15:27:53;24.70;65.00
54576;DHT22;40472;53.486;14.542;2023-07-08T15:30:22;24.50;65.00
54576;DHT22;40472;53.486;14.542;2023-07-08T15:32:48;24.50;64.40
54576;DHT22;40472;53.486;14.542;2023-07-08T15:35:19;24.50;64.20
54576;DHT22;40472;53.486;14.542;2023-07-08T15:37:46;24.40;63.90
54576;DHT22;40472;53.486;14.542;2023-07-08T15:40:16;24.60;64.60
54576;DHT22;40472;53.486;14.542;2023-07-08T15:42:45;24.70;62.90
54576;DHT22;40472;53.486;14.542;2023-07-08T15:45:47;25.00;62.70
54576;DHT22;40472;53.486;14.542;2023-07-08T15:48:14;25.40;63.20
54576;DHT22;40472;53.486;14.542;2023-07-08T15:50:40;25.70;62.20
54576;DHT22;40472;53.486;14.542;2023-07-08T15:53:06;25.90;62.10
54576;DHT22;40472;53.486;14.542;2023-07-08T15:55:36;26.60;60.90
54576;DHT22;40472;53.486;14.542;2023-07-08T15:58:10;26.90;61.70
54576;DHT22;40472;53.486;14.542;2023-07-08T16:00:39;27.50;59.30
54576;DHT22;40472;53.486;14.542;2023-07-08T16:03:25;27.60;58.20
54576;DHT22;40472;53.486;14.542;2023-07-08T16:05:52;27.20;56.80
54576;DHT22;40472;53.486;14.542;2023-07-08T16:08:19;27.30;57.60
54576;DHT22;40472;53.486;14.542;2023-07-08T16:10:57;27.20;57.80
54576;DHT22;40472;53.486;14.542;2023-07-08T16:13:26;27.40;59.30
54576;DHT22;40472;53.486;14.542;2023-07-08T16:15:53;27.60;57.80
54576;DHT22;40472;53.486;14.542;2023-07-08T16:18:19;28.20;57.00
54576;DHT22;40472;53.486;14.542;2023-07-08T16:20:46;28.50;56.60
54576;DHT22;40472;53.486;14.542;2023-07-08T16:23:12;28.10;56.40
54576;DHT22;40472;53.486;14.542;2023-07-08T16:25:44;27.50;56.30
54576;DHT22;40472;53.486;14.542;2023-07-08T16:28:45;27.10;56.40
54576;DHT22;40472;53.486;14.542;2023-07-08T16:31:19;26.70;57.60
54576;DHT22;40472;53.486;14.542;2023-07-08T16:33:48;26.80;57.80